To NAV CANADA Home Page Login to a new session Search on AWWS site Disclaimer Vers la page française équivalente Tips FAQ What's new on the site To the Forecasts and Observations / NOTAM section To "File a Flight Plan" website Publications and other links Update of the User's profile FIC Telephone Numbers My Weather Data Folder Route Weather Data Regional Weather Data Local Weather Data To the Forecasts and Observations / NOTAM section
Request Generated 06/25/2018 at 05:38:14 UTC . Weather information available at that time is displayed.

METAR/TAF

WIARTON/ON    

METAR CYVV 250500Z 00000KT 15SM SKC 08/07 A3011 RMK SLP202=
METAR CYVV 250400Z 00000KT 15SM SKC 09/09 A3010 RMK SLP198=
METAR CYVV 250300Z 00000KT 15SM FEW250 10/09 A3008 RMK CI1 CI TR
SLP190=

*** REMARK        : Forecast period has ended; this was the last TAF issued
*** REMARQUE : La période de prévision est échue; ceci était le dernier TAF qui a été émis
TAF CYVV 241938Z 2420/2423 35005KT P6SM SCT020 OVC070 TEMPO 2420/2423
P6SM -SHRA BKN020 OVC070
RMK NXT FCST WILL BE ISSUED AT 251045Z=
Your time UTC time
Weather data provided by Environment Canada and NAV CANADA